createdAt,value
2023-05-23T00:01:47.236Z,74.12
2023-05-23T00:04:19.226Z,74.33
2023-05-23T00:06:51.464Z,74.47
2023-05-23T00:09:20.349Z,74.91
2023-05-23T00:11:49.026Z,74.93
2023-05-23T00:14:18.326Z,74.96
2023-05-23T00:16:50.039Z,75.06
2023-05-23T00:19:19.039Z,75.18
2023-05-23T00:21:49.050Z,75.37
2023-05-23T00:24:19.195Z,75.62
2023-05-23T00:26:47.908Z,75.98
2023-05-23T00:29:17.324Z,76.32
2023-05-23T00:31:47.260Z,76.38
2023-05-23T00:34:19.708Z,76.60
2023-05-23T00:36:50.797Z,76.74
2023-05-23T00:39:20.205Z,76.87
2023-05-23T00:41:52.318Z,77.12
2023-05-23T00:44:22.458Z,77.26
2023-05-23T00:46:54.233Z,77.37
2023-05-23T00:49:24.125Z,77.55
2023-05-23T00:51:53.095Z,77.70
2023-05-23T00:54:31.478Z,77.76
2023-05-23T00:57:00.364Z,77.91
2023-05-23T00:59:29.703Z,77.98
2023-05-23T01:01:59.044Z,78.09
2023-05-23T01:04:28.913Z,78.39
2023-05-23T01:06:58.117Z,78.43
2023-05-23T01:09:29.280Z,78.46
2023-05-23T01:12:11.149Z,78.64
2023-05-23T01:14:54.473Z,78.78
2023-05-23T01:17:42.704Z,79.01
2023-05-23T01:20:22.194Z,79.09
2023-05-23T01:23:23.909Z,79.26
2023-05-23T01:26:00.042Z,79.32
2023-05-23T01:28:32.643Z,79.30
2023-05-23T01:31:03.747Z,79.52
2023-05-23T01:33:33.933Z,79.59
2023-05-23T01:36:04.229Z,79.57
2023-05-23T01:38:32.927Z,79.60
2023-05-23T01:41:02.115Z,79.76
2023-05-23T01:43:31.018Z,80.02
2023-05-23T01:46:00.224Z,80.24
2023-05-23T01:48:29.822Z,80.09
2023-05-23T01:50:59.851Z,80.25
2023-05-23T01:53:29.437Z,80.48
2023-05-23T01:55:58.040Z,80.53
2023-05-23T01:58:27.626Z,80.59
2023-05-23T02:00:56.757Z,80.73
2023-05-23T02:03:25.404Z,80.95
2023-05-23T02:05:54.408Z,81.13
2023-05-23T02:08:23.089Z,81.24
2023-05-23T02:10:51.677Z,81.39
2023-05-23T02:13:22.024Z,81.44
2023-05-23T02:15:51.115Z,81.60
2023-05-23T02:18:21.243Z,81.95
2023-05-23T02:20:51.922Z,82.26
2023-05-23T02:23:20.519Z,82.43
2023-05-23T02:25:49.635Z,82.53
2023-05-23T02:28:18.112Z,82.70
2023-05-23T02:30:47.540Z,82.87
2023-05-23T02:33:17.219Z,82.86
2023-05-23T02:35:46.829Z,83.15
2023-05-23T02:38:17.149Z,83.13
2023-05-23T02:40:45.948Z,83.08
2023-05-23T02:43:14.620Z,83.12
2023-05-23T02:45:43.432Z,83.01
2023-05-23T02:48:15.190Z,83.09
2023-05-23T02:50:44.262Z,83.22
2023-05-23T02:53:13.152Z,83.22
2023-05-23T02:55:43.401Z,83.51
2023-05-23T02:58:12.269Z,83.71
2023-05-23T03:00:44.449Z,83.91
2023-05-23T03:03:13.635Z,84.15
2023-05-23T03:05:42.749Z,84.38
2023-05-23T03:08:12.061Z,84.53
2023-05-23T03:10:41.874Z,84.70
2023-05-23T03:13:12.603Z,84.84
2023-05-23T03:15:41.789Z,84.91
2023-05-23T03:18:10.876Z,84.91
2023-05-23T03:20:39.765Z,84.85
2023-05-23T03:23:08.785Z,85.15
2023-05-23T03:25:37.579Z,85.07
2023-05-23T03:28:06.867Z,84.73
2023-05-23T03:30:35.874Z,84.85
2023-05-23T03:33:05.394Z,84.72
2023-05-23T03:35:34.164Z,84.64
2023-05-23T03:38:03.232Z,84.60
2023-05-23T03:40:32.246Z,84.34
2023-05-23T03:43:10.031Z,84.39
2023-05-23T03:45:41.022Z,84.24
2023-05-23T03:48:14.261Z,84.19
2023-05-23T03:50:43.774Z,84.15
2023-05-23T03:53:13.672Z,84.10
2023-05-23T03:55:43.521Z,84.27
2023-05-23T03:58:13.721Z,84.18
2023-05-23T04:00:43.823Z,84.04
2023-05-23T04:03:16.502Z,83.94
2023-05-23T04:05:45.523Z,83.71
2023-05-23T04:08:15.125Z,83.64
2023-05-23T04:10:43.920Z,83.58
2023-05-23T04:13:12.900Z,83.60
2023-05-23T04:15:42.077Z,83.43
2023-05-23T04:18:13.345Z,83.40
2023-05-23T04:20:42.852Z,83.35
2023-05-23T04:23:12.559Z,83.30
2023-05-23T04:25:45.865Z,83.29
2023-05-23T04:28:23.820Z,83.14
2023-05-23T04:30:54.206Z,82.93
2023-05-23T04:33:26.728Z,82.80
2023-05-23T04:35:55.313Z,82.57
2023-05-23T04:38:25.537Z,82.34
2023-05-23T04:40:54.780Z,82.08
2023-05-23T04:43:59.360Z,81.54
2023-05-23T04:46:35.438Z,81.03
2023-05-23T04:49:37.776Z,80.07
2023-05-23T04:52:06.691Z,79.18
2023-05-23T04:54:36.803Z,78.72
2023-05-23T04:57:07.123Z,78.02
2023-05-23T04:59:36.033Z,77.61
2023-05-23T05:02:06.834Z,76.74
2023-05-23T05:04:35.761Z,75.58
2023-05-23T05:07:04.941Z,75.37
2023-05-23T05:09:33.941Z,75.25
2023-05-23T05:12:03.141Z,74.57
2023-05-23T05:14:32.022Z,73.16
2023-05-23T05:17:03.227Z,73.18
2023-05-23T05:19:39.536Z,72.64
2023-05-23T05:22:08.736Z,72.46
2023-05-23T05:24:37.722Z,72.32
2023-05-23T05:27:07.468Z,71.55
2023-05-23T05:29:37.049Z,71.30
2023-05-23T05:32:09.774Z,71.49
2023-05-23T05:34:39.226Z,70.96
2023-05-23T05:37:08.320Z,70.08
2023-05-23T05:39:38.979Z,69.86
2023-05-23T05:42:08.268Z,69.55
2023-05-23T05:44:37.250Z,68.86
2023-05-23T05:47:07.576Z,68.73
2023-05-23T05:49:36.363Z,69.14
2023-05-23T05:52:07.320Z,69.06
2023-05-23T05:54:36.816Z,67.95
2023-05-23T05:57:06.121Z,68.09
2023-05-23T05:59:35.182Z,67.32
2023-05-23T06:02:04.087Z,67.33
2023-05-23T06:04:33.354Z,66.95
2023-05-23T06:07:02.418Z,66.10
2023-05-23T06:09:31.785Z,65.46
2023-05-23T06:12:00.701Z,65.61
2023-05-23T06:14:30.274Z,65.62
2023-05-23T06:17:00.220Z,65.34
2023-05-23T06:19:29.386Z,65.38
2023-05-23T06:21:59.009Z,64.63
2023-05-23T06:24:27.867Z,65.37
2023-05-23T06:26:57.156Z,66.21
2023-05-23T06:29:26.597Z,66.02
2023-05-23T06:31:59.844Z,66.42
2023-05-23T06:34:29.498Z,66.89
2023-05-23T06:36:58.503Z,66.86
2023-05-23T06:39:27.897Z,67.02
2023-05-23T06:41:57.133Z,66.98
2023-05-23T06:44:27.731Z,66.55
2023-05-23T06:46:58.080Z,65.18
2023-05-23T06:49:28.072Z,64.75
2023-05-23T06:51:59.103Z,64.37
2023-05-23T06:54:28.811Z,63.96
2023-05-23T06:56:57.987Z,63.74
2023-05-23T06:59:27.633Z,63.25
2023-05-23T07:01:57.426Z,62.58
2023-05-23T07:04:26.629Z,62.12
2023-05-23T07:06:56.540Z,61.63
2023-05-23T07:09:26.205Z,60.55
2023-05-23T07:12:00.197Z,60.18
2023-05-23T07:14:29.366Z,59.41
2023-05-23T07:16:58.888Z,59.53
2023-05-23T07:19:28.318Z,58.86
2023-05-23T07:21:57.429Z,57.74
2023-05-23T07:24:26.672Z,57.17
2023-05-23T07:26:57.664Z,56.97
2023-05-23T07:29:27.009Z,55.85
2023-05-23T07:31:55.792Z,56.08
2023-05-23T07:34:24.868Z,56.21
2023-05-23T07:36:58.175Z,55.91
2023-05-23T07:39:28.789Z,56.30
2023-05-23T07:41:58.951Z,55.99
2023-05-23T07:44:33.965Z,55.79
2023-05-23T07:47:03.629Z,55.46
2023-05-23T07:49:33.083Z,55.42
2023-05-23T07:52:02.679Z,55.91
2023-05-23T07:54:33.927Z,56.22
2023-05-23T07:57:04.657Z,56.72
2023-05-23T07:59:33.569Z,57.29
2023-05-23T08:02:03.620Z,57.69
2023-05-23T08:04:32.999Z,57.43
2023-05-23T08:07:06.277Z,56.83
2023-05-23T08:09:43.660Z,56.34
2023-05-23T08:12:17.252Z,56.68
2023-05-23T08:14:51.762Z,56.39
2023-05-23T08:17:34.518Z,57.17
2023-05-23T08:20:05.683Z,58.40
2023-05-23T08:22:35.077Z,58.26
2023-05-23T08:25:06.721Z,58.21
2023-05-23T08:27:38.029Z,59.23
2023-05-23T08:30:14.122Z,60.30
2023-05-23T08:32:43.156Z,61.13
2023-05-23T08:35:12.423Z,61.86
2023-05-23T08:37:43.523Z,61.71
2023-05-23T08:40:23.622Z,62.00
2023-05-23T08:43:05.924Z,62.97
2023-05-23T08:45:35.797Z,63.22
2023-05-23T08:48:07.891Z,62.30
2023-05-23T08:50:39.210Z,62.18
2023-05-23T08:53:10.641Z,62.26
2023-05-23T08:55:40.787Z,62.84
2023-05-23T08:58:11.130Z,63.88
2023-05-23T09:00:49.006Z,64.13
2023-05-23T09:03:18.744Z,64.46
2023-05-23T09:06:22.152Z,65.41
2023-05-23T09:08:52.331Z,67.21
2023-05-23T09:11:22.581Z,67.09
2023-05-23T09:13:51.975Z,67.86
2023-05-23T09:16:22.738Z,69.39
2023-05-23T09:18:55.547Z,71.35
2023-05-23T09:21:26.856Z,74.40
2023-05-23T09:24:04.841Z,75.22
2023-05-23T09:26:34.151Z,75.92
2023-05-23T09:29:06.750Z,77.07
2023-05-23T09:31:36.047Z,76.39
2023-05-23T09:34:07.465Z,75.49
2023-05-23T09:36:37.294Z,76.80
2023-05-23T09:39:06.293Z,78.59
2023-05-23T09:41:36.300Z,78.93
2023-05-23T09:44:11.823Z,79.38
2023-05-23T09:46:41.554Z,79.20
2023-05-23T09:49:22.737Z,78.89
2023-05-23T09:52:02.276Z,80.11
2023-05-23T09:54:31.269Z,82.18
2023-05-23T09:57:01.962Z,83.14
2023-05-23T09:59:33.104Z,84.02
2023-05-23T10:02:04.135Z,85.03
2023-05-23T10:04:35.864Z,85.48
2023-05-23T10:07:17.727Z,85.23
2023-05-23T10:09:51.570Z,86.23
2023-05-23T10:12:49.415Z,86.69
2023-05-23T10:15:19.791Z,86.10
2023-05-23T10:18:05.717Z,85.24
2023-05-23T10:20:35.732Z,84.96
2023-05-23T10:23:05.876Z,84.65
2023-05-23T10:25:37.649Z,84.42
2023-05-23T10:28:06.694Z,85.19
2023-05-23T10:30:36.321Z,84.84
2023-05-23T10:33:05.975Z,83.04
2023-05-23T10:35:35.280Z,82.38
2023-05-23T10:38:14.559Z,83.49
2023-05-23T10:40:54.527Z,81.69
2023-05-23T10:43:28.103Z,81.58
2023-05-23T10:45:57.293Z,79.98
2023-05-23T10:48:30.092Z,78.91
2023-05-23T10:51:08.430Z,78.51
2023-05-23T10:53:48.861Z,77.63
2023-05-23T10:56:24.287Z,77.66
2023-05-23T10:58:58.099Z,77.54
2023-05-23T11:01:28.281Z,76.98
2023-05-23T11:03:57.180Z,75.80
2023-05-23T11:06:44.869Z,74.83
2023-05-23T11:09:21.694Z,74.61
2023-05-23T11:12:08.185Z,73.36
2023-05-23T11:14:38.583Z,72.36
2023-05-23T11:17:13.744Z,73.46
2023-05-23T11:20:13.822Z,73.76
2023-05-23T11:22:54.689Z,72.61
2023-05-23T11:25:43.980Z,71.09
2023-05-23T11:28:13.360Z,70.45
2023-05-23T11:30:42.470Z,71.04
2023-05-23T11:33:15.727Z,71.12
2023-05-23T11:35:46.726Z,71.33
2023-05-23T11:38:17.275Z,70.14
2023-05-23T11:40:49.921Z,70.47
2023-05-23T11:43:20.219Z,70.30
2023-05-23T11:45:49.264Z,69.76
2023-05-23T11:48:18.621Z,67.92
2023-05-23T11:50:52.472Z,67.77
2023-05-23T11:53:26.126Z,67.72
2023-05-23T11:55:58.033Z,67.29
2023-05-23T11:58:29.653Z,68.33
2023-05-23T12:01:07.369Z,66.85
2023-05-23T12:03:47.171Z,66.40
2023-05-23T12:06:19.979Z,66.71
2023-05-23T12:08:49.064Z,67.11
2023-05-23T12:11:18.821Z,66.18
2023-05-23T12:13:48.306Z,65.25
2023-05-23T12:16:17.635Z,65.96
2023-05-23T12:18:46.809Z,65.63
2023-05-23T12:21:16.175Z,65.42
2023-05-23T12:23:45.372Z,65.02
2023-05-23T12:26:14.265Z,63.65
2023-05-23T12:28:45.660Z,63.39
2023-05-23T12:31:18.092Z,63.52
2023-05-23T12:33:49.260Z,63.88
2023-05-23T12:36:24.795Z,64.11
2023-05-23T12:38:54.499Z,63.30
2023-05-23T12:41:23.790Z,63.78
2023-05-23T12:43:54.495Z,64.33
2023-05-23T12:46:25.552Z,64.21
2023-05-23T12:48:55.073Z,64.75
2023-05-23T12:51:23.982Z,64.57
2023-05-23T12:53:52.972Z,63.91
2023-05-23T12:56:23.064Z,63.01
2023-05-23T12:58:52.554Z,62.36
2023-05-23T13:01:22.410Z,63.19
2023-05-23T13:03:51.391Z,63.07
2023-05-23T13:06:20.587Z,62.38
2023-05-23T13:08:51.434Z,62.16
2023-05-23T13:11:23.802Z,62.32
2023-05-23T13:13:53.434Z,61.92
2023-05-23T13:16:23.113Z,61.96
2023-05-23T13:18:52.865Z,61.84
2023-05-23T13:21:23.089Z,62.13
2023-05-23T13:23:52.334Z,61.78
2023-05-23T13:26:21.319Z,61.79
2023-05-23T13:28:51.451Z,62.26
2023-05-23T13:31:20.306Z,62.42
2023-05-23T13:33:49.635Z,62.76
2023-05-23T13:36:18.628Z,62.42
2023-05-23T13:38:47.831Z,62.30
2023-05-23T13:41:17.430Z,62.68
2023-05-23T13:43:46.739Z,62.72
2023-05-23T13:46:15.826Z,62.87
2023-05-23T13:48:44.837Z,63.48
2023-05-23T13:51:13.949Z,62.58
2023-05-23T13:53:43.323Z,61.99
2023-05-23T13:56:12.749Z,62.15
2023-05-23T13:58:43.570Z,61.85
2023-05-23T14:01:13.057Z,61.87
2023-05-23T14:03:42.052Z,61.81
2023-05-23T14:06:13.610Z,60.51
2023-05-23T14:08:42.627Z,60.23
2023-05-23T14:11:11.821Z,60.02
2023-05-23T14:13:40.397Z,60.55
2023-05-23T14:16:09.948Z,61.18
2023-05-23T14:18:39.186Z,61.83
2023-05-23T14:21:08.289Z,63.82
2023-05-23T14:23:37.474Z,66.31
2023-05-23T14:26:07.195Z,67.26
2023-05-23T14:28:36.076Z,67.47
2023-05-23T14:31:05.497Z,67.98
2023-05-23T14:33:35.196Z,68.75
2023-05-23T14:36:04.482Z,70.24
2023-05-23T14:38:33.589Z,71.78
2023-05-23T14:41:02.788Z,72.41
2023-05-23T14:43:32.855Z,72.54
2023-05-23T14:46:03.620Z,72.45
2023-05-23T14:48:37.724Z,71.62
2023-05-23T14:51:21.411Z,72.34
2023-05-23T14:54:00.643Z,72.09
2023-05-23T14:56:30.137Z,73.25
2023-05-23T14:59:00.712Z,74.51
2023-05-23T15:01:30.586Z,75.04
2023-05-23T15:04:00.356Z,76.41
2023-05-23T15:06:30.114Z,77.57
2023-05-23T15:09:00.785Z,79.26
2023-05-23T15:11:29.654Z,81.39
2023-05-23T15:14:00.019Z,82.34
2023-05-23T15:16:33.704Z,82.11
2023-05-23T15:19:03.072Z,81.13
2023-05-23T15:21:32.861Z,81.04
2023-05-23T15:24:02.154Z,80.38
2023-05-23T15:26:31.467Z,80.26
2023-05-23T15:29:01.006Z,79.36
2023-05-23T15:31:30.394Z,79.06
2023-05-23T15:33:59.760Z,79.60
2023-05-23T15:36:28.859Z,80.25
2023-05-23T15:38:58.894Z,80.81
2023-05-23T15:41:28.494Z,81.54
2023-05-23T15:43:57.488Z,82.81
2023-05-23T15:46:26.972Z,83.30
2023-05-23T15:49:05.026Z,83.35
2023-05-23T15:51:39.829Z,84.16
2023-05-23T15:54:08.819Z,84.77
2023-05-23T15:56:40.670Z,85.00
2023-05-23T15:59:10.090Z,85.15
2023-05-23T16:01:41.308Z,85.21
2023-05-23T16:04:13.204Z,84.90
2023-05-23T16:06:43.789Z,85.40
2023-05-23T16:09:14.609Z,85.41
2023-05-23T16:11:45.609Z,85.43
2023-05-23T16:14:15.612Z,85.26
2023-05-23T16:16:45.916Z,85.54
2023-05-23T16:19:15.268Z,86.16
2023-05-23T16:21:44.630Z,86.46
2023-05-23T16:24:17.483Z,86.67
2023-05-23T16:26:46.730Z,86.56
2023-05-23T16:29:17.504Z,86.46
2023-05-23T16:31:47.313Z,86.51
2023-05-23T16:34:16.275Z,86.89
2023-05-23T16:36:45.675Z,87.54
2023-05-23T16:39:14.986Z,87.99
2023-05-23T16:41:44.484Z,88.10
2023-05-23T16:44:13.587Z,88.27
2023-05-23T16:46:43.156Z,88.84
2023-05-23T16:49:12.066Z,88.91
2023-05-23T16:51:40.840Z,88.70
2023-05-23T16:54:10.354Z,89.08
2023-05-23T16:56:40.159Z,89.30
2023-05-23T16:59:09.479Z,90.03
2023-05-23T17:01:38.674Z,91.00
2023-05-23T17:04:07.651Z,92.07
2023-05-23T17:06:37.763Z,92.49
2023-05-23T17:09:06.871Z,92.62
2023-05-23T17:11:36.070Z,92.91
2023-05-23T17:14:05.794Z,93.23
2023-05-23T17:16:37.700Z,94.08
2023-05-23T17:19:11.686Z,95.54
2023-05-23T17:21:41.832Z,96.37
2023-05-23T17:24:11.157Z,97.36
2023-05-23T17:26:40.787Z,98.24
2023-05-23T17:29:09.967Z,99.82
2023-05-23T17:31:40.533Z,99.96
2023-05-23T17:34:09.907Z,100.00
2023-05-23T17:36:42.947Z,100.00
2023-05-23T17:39:13.201Z,100.00
2023-05-23T17:41:42.712Z,100.00
2023-05-23T17:44:12.535Z,100.00
2023-05-23T17:46:41.939Z,100.00
2023-05-23T17:49:10.760Z,99.94
2023-05-23T17:51:40.428Z,99.66
2023-05-23T17:54:10.177Z,99.01
2023-05-23T17:56:39.034Z,98.31
2023-05-23T17:59:08.318Z,97.68
2023-05-23T18:01:37.519Z,96.96
2023-05-23T18:04:07.840Z,95.67
2023-05-23T18:06:37.351Z,94.55
2023-05-23T18:09:06.787Z,93.50
2023-05-23T18:11:36.019Z,92.46
2023-05-23T18:14:05.470Z,92.12
2023-05-23T18:16:34.346Z,92.08
2023-05-23T18:19:04.246Z,92.05
2023-05-23T18:21:35.624Z,92.01
2023-05-23T18:24:05.591Z,91.98
2023-05-23T18:26:34.943Z,92.37
2023-05-23T18:29:05.316Z,92.44
2023-05-23T18:31:35.186Z,92.76
2023-05-23T18:34:05.396Z,92.88
2023-05-23T18:36:35.709Z,93.37
2023-05-23T18:39:06.043Z,94.02
2023-05-23T18:41:37.808Z,94.30
2023-05-23T18:44:08.236Z,95.70
2023-05-23T18:46:37.818Z,96.59
2023-05-23T18:49:07.041Z,98.17
2023-05-23T18:51:40.236Z,99.47
2023-05-23T18:54:11.897Z,99.87
2023-05-23T18:56:41.775Z,100.00
2023-05-23T18:59:17.198Z,100.00
2023-05-23T19:01:49.337Z,100.00
2023-05-23T19:04:22.057Z,100.00
2023-05-23T19:06:53.684Z,100.00
2023-05-23T19:09:26.940Z,100.00
2023-05-23T19:11:59.208Z,100.00
2023-05-23T19:14:30.672Z,100.00
2023-05-23T19:17:07.807Z,100.00
2023-05-23T19:19:39.950Z,100.00
2023-05-23T19:22:13.905Z,100.00
2023-05-23T19:24:45.912Z,100.00
2023-05-23T19:27:16.804Z,100.00
2023-05-23T19:29:46.125Z,100.00
2023-05-23T19:32:15.672Z,100.00
2023-05-23T19:34:45.746Z,100.00
2023-05-23T19:37:15.643Z,100.00
2023-05-23T19:39:46.480Z,100.00
2023-05-23T19:42:16.085Z,100.00
2023-05-23T19:44:45.823Z,100.00
2023-05-23T19:47:14.991Z,100.00
2023-05-23T19:49:44.825Z,100.00
2023-05-23T19:52:14.741Z,100.00
2023-05-23T19:54:45.653Z,100.00
2023-05-23T19:57:14.752Z,100.00
2023-05-23T19:59:44.150Z,100.00
2023-05-23T20:02:14.172Z,100.00
2023-05-23T20:04:43.293Z,100.00
2023-05-23T20:07:12.920Z,100.00
2023-05-23T20:09:42.088Z,100.00
2023-05-23T20:12:11.925Z,100.00
2023-05-23T20:14:41.808Z,100.00
2023-05-23T20:17:11.009Z,100.00
2023-05-23T20:19:43.069Z,100.00
2023-05-23T20:22:12.271Z,100.00
2023-05-23T20:24:41.496Z,100.00
2023-05-23T20:27:10.664Z,100.00
2023-05-23T20:29:39.569Z,100.00
2023-05-23T20:32:08.750Z,100.00
2023-05-23T20:34:38.251Z,100.00
2023-05-23T20:37:07.688Z,100.00
2023-05-23T20:39:38.197Z,100.00
2023-05-23T20:42:10.905Z,100.00
2023-05-23T20:44:40.059Z,100.00
2023-05-23T20:47:12.924Z,100.00
2023-05-23T20:49:43.175Z,100.00
2023-05-23T20:52:12.370Z,100.00
2023-05-23T20:54:43.449Z,100.00
2023-05-23T20:57:13.234Z,100.00
2023-05-23T20:59:42.327Z,100.00
2023-05-23T21:02:13.685Z,100.00
2023-05-23T21:04:42.773Z,100.00
2023-05-23T21:07:12.499Z,100.00
2023-05-23T21:09:42.608Z,100.00
2023-05-23T21:12:11.471Z,100.00
2023-05-23T21:14:41.508Z,100.00
2023-05-23T21:17:11.333Z,100.00
2023-05-23T21:19:45.966Z,100.00
2023-05-23T21:22:14.925Z,100.00
2023-05-23T21:24:44.348Z,100.00
2023-05-23T21:27:13.825Z,100.00
2023-05-23T21:29:43.211Z,100.00
2023-05-23T21:32:12.420Z,100.00
2023-05-23T21:34:42.172Z,100.00
2023-05-23T21:37:11.623Z,100.00
2023-05-23T21:39:50.519Z,100.00
2023-05-23T21:42:21.800Z,100.00
2023-05-23T21:44:51.639Z,100.00
2023-05-23T21:47:21.876Z,100.00
2023-05-23T21:49:50.776Z,100.00
2023-05-23T21:52:20.139Z,100.00
2023-05-23T21:54:49.571Z,100.00
2023-05-23T21:57:18.569Z,100.00
2023-05-23T21:59:47.227Z,100.00
2023-05-23T22:02:16.340Z,100.00
2023-05-23T22:04:46.547Z,100.00
2023-05-23T22:07:15.337Z,100.00
2023-05-23T22:09:44.235Z,100.00
2023-05-23T22:12:14.145Z,100.00
2023-05-23T22:14:42.831Z,100.00
2023-05-23T22:17:14.560Z,100.00
2023-05-23T22:19:43.300Z,100.00
2023-05-23T22:22:12.682Z,100.00
2023-05-23T22:24:41.269Z,100.00
2023-05-23T22:27:10.054Z,100.00
2023-05-23T22:29:39.290Z,100.00
2023-05-23T22:32:08.177Z,100.00
2023-05-23T22:34:37.235Z,100.00
2023-05-23T22:37:06.023Z,100.00
2023-05-23T22:39:34.692Z,100.00
2023-05-23T22:42:03.889Z,100.00
2023-05-23T22:44:32.797Z,100.00
2023-05-23T22:47:04.274Z,100.00
2023-05-23T22:49:32.921Z,100.00
2023-05-23T22:52:02.952Z,100.00
2023-05-23T22:54:31.836Z,100.00
2023-05-23T22:57:01.866Z,100.00
2023-05-23T22:59:31.353Z,100.00
2023-05-23T23:02:00.988Z,100.00
2023-05-23T23:04:31.506Z,100.00
2023-05-23T23:07:02.218Z,100.00
2023-05-23T23:09:31.118Z,100.00
2023-05-23T23:11:59.696Z,100.00
2023-05-23T23:14:28.494Z,100.00
2023-05-23T23:16:58.532Z,100.00
2023-05-23T23:19:30.062Z,100.00
2023-05-23T23:21:58.769Z,100.00
2023-05-23T23:24:27.730Z,100.00
2023-05-23T23:26:56.437Z,100.00
2023-05-23T23:29:25.226Z,100.00
2023-05-23T23:31:56.454Z,100.00
2023-05-23T23:34:25.157Z,100.00
2023-05-23T23:36:54.034Z,100.00
2023-05-23T23:39:23.029Z,100.00
2023-05-23T23:41:51.910Z,100.00
2023-05-23T23:44:20.795Z,100.00
2023-05-23T23:46:49.524Z,100.00
2023-05-23T23:49:19.737Z,100.00
2023-05-23T23:51:48.762Z,100.00
2023-05-23T23:54:17.592Z,100.00
2023-05-23T23:56:46.474Z,100.00
2023-05-23T23:59:15.168Z,100.00
